createdAt,value
2019-05-15T00:02:58.921Z,13.90
2019-05-15T00:08:03.849Z,13.80
2019-05-15T00:13:09.304Z,13.70
2019-05-15T00:18:13.891Z,13.60
2019-05-15T00:23:18.415Z,13.60
2019-05-15T00:28:22.830Z,13.50
2019-05-15T00:33:29.265Z,13.30
2019-05-15T00:38:33.571Z,13.10
2019-05-15T00:49:41.298Z,12.90
2019-05-15T00:54:45.647Z,12.80
2019-05-15T00:59:50.026Z,12.90
2019-05-15T01:04:54.393Z,12.80
2019-05-15T01:09:58.800Z,12.70
2019-05-15T01:15:03.206Z,12.60
2019-05-15T01:20:13.844Z,12.60
2019-05-15T01:25:18.630Z,12.50
2019-05-15T01:30:23.170Z,12.50
2019-05-15T01:35:28.709Z,12.40
2019-05-15T01:40:33.272Z,12.40
2019-05-15T01:51:41.523Z,12.10
2019-05-15T01:56:45.798Z,12.10
2019-05-15T02:01:50.111Z,12.10
2019-05-15T02:06:54.398Z,12.00
2019-05-15T02:11:58.688Z,12.00
2019-05-15T02:17:03.219Z,11.90
2019-05-15T02:22:08.386Z,11.90
2019-05-15T02:27:12.747Z,11.80
2019-05-15T02:32:19.471Z,11.80
2019-05-15T02:37:29.368Z,11.70
2019-05-15T02:42:33.040Z,11.60
2019-05-15T02:47:40.035Z,11.60
2019-05-15T02:52:45.730Z,11.50
2019-05-15T02:57:52.186Z,11.40
2019-05-15T03:03:00.644Z,11.20
2019-05-15T03:08:05.038Z,11.10
2019-05-15T03:13:09.902Z,11.00
2019-05-15T03:18:19.164Z,11.00
2019-05-15T03:23:23.593Z,11.00
2019-05-15T03:28:30.310Z,10.70
2019-05-15T03:33:37.118Z,10.70
2019-05-15T03:38:41.087Z,10.80
2019-05-15T03:49:24.427Z,10.60
2019-05-15T03:54:29.522Z,10.40
2019-05-15T03:59:34.087Z,10.50
2019-05-15T04:04:40.739Z,10.30
2019-05-15T04:09:45.144Z,10.30
2019-05-15T04:14:50.176Z,10.30
2019-05-15T04:19:55.055Z,10.40
2019-05-15T04:24:59.815Z,10.40
2019-05-15T04:30:04.318Z,10.40
2019-05-15T04:35:10.144Z,10.30
2019-05-15T04:40:15.067Z,10.40
2019-05-15T04:45:20.575Z,10.40
2019-05-15T04:50:24.969Z,10.50
2019-05-15T04:55:29.371Z,10.60
2019-05-15T05:00:49.509Z,10.70
2019-05-15T05:05:53.523Z,10.80
2019-05-15T05:10:59.251Z,11.00
2019-05-15T05:16:03.885Z,11.10
2019-05-15T05:21:08.173Z,11.20
2019-05-15T05:26:12.501Z,11.30
2019-05-15T05:31:19.081Z,11.40
2019-05-15T05:36:24.528Z,11.50
2019-05-15T05:41:28.840Z,11.70
2019-05-15T05:46:33.418Z,11.80
2019-05-15T05:51:38.727Z,12.00
2019-05-15T05:56:43.146Z,12.20
2019-05-15T06:01:48.498Z,12.40
2019-05-15T06:07:06.099Z,12.50
2019-05-15T06:11:59.258Z,12.60
2019-05-15T06:17:03.586Z,12.70
2019-05-15T06:22:08.783Z,12.80
2019-05-15T06:27:13.286Z,12.90
2019-05-15T06:32:19.457Z,13.10
2019-05-15T06:37:23.868Z,13.10
2019-05-15T06:42:29.661Z,13.20
2019-05-15T06:47:33.983Z,13.30
2019-05-15T06:52:38.367Z,13.50
2019-05-15T06:57:42.677Z,13.50
2019-05-15T07:02:48.687Z,13.60
2019-05-15T07:07:53.190Z,13.70
2019-05-15T07:12:58.539Z,13.90
2019-05-15T07:18:04.356Z,13.90
2019-05-15T07:23:09.000Z,14.00
2019-05-15T08:07:49.431Z,14.20
2019-05-15T08:12:53.755Z,14.30
2019-05-15T08:18:05.488Z,14.30
2019-05-15T08:40:22.102Z,14.80
2019-05-15T08:51:32.695Z,15.20
2019-05-15T08:56:40.444Z,15.30
2019-05-15T09:01:44.741Z,15.40
2019-05-15T09:06:49.649Z,15.50
2019-05-15T09:11:54.387Z,15.60
2019-05-15T09:16:58.739Z,15.90
2019-05-15T09:38:30.675Z,16.30
2019-05-15T09:43:34.990Z,16.40
2019-05-15T09:48:39.342Z,16.50
2019-05-15T09:53:43.644Z,16.70
2019-05-15T09:58:48.908Z,16.90
2019-05-15T10:03:53.552Z,17.00
2019-05-15T10:08:57.921Z,17.20
2019-05-15T10:14:02.348Z,17.50
2019-05-15T10:19:08.813Z,17.60
2019-05-15T10:24:12.567Z,17.70
2019-05-15T10:29:16.858Z,17.80
2019-05-15T10:34:21.160Z,17.90
2019-05-15T10:39:25.457Z,18.10
2019-05-15T10:44:29.762Z,18.30
2019-05-15T10:49:34.283Z,18.50
2019-05-15T10:54:38.660Z,18.70
2019-05-15T10:59:43.251Z,19.00
2019-05-15T11:04:48.684Z,19.20
2019-05-15T11:09:53.296Z,19.40
2019-05-15T11:14:57.625Z,20.30
2019-05-15T11:20:01.912Z,21.70
2019-05-15T11:25:09.928Z,22.00
2019-05-15T11:30:14.877Z,22.00
2019-05-15T11:35:19.118Z,21.90
2019-05-15T11:40:23.857Z,21.80
2019-05-15T11:45:29.158Z,21.80
2019-05-15T11:50:33.591Z,21.90
2019-05-15T11:55:38.661Z,22.00
2019-05-15T12:00:43.432Z,22.10
2019-05-15T12:05:47.791Z,22.20
2019-05-15T12:10:52.134Z,22.30
2019-05-15T12:15:58.714Z,22.40
2019-05-15T12:21:02.509Z,22.60
2019-05-15T12:26:09.132Z,22.80
2019-05-15T12:31:13.054Z,22.70
2019-05-15T12:36:45.435Z,22.20
2019-05-15T13:01:47.767Z,22.00
2019-05-15T13:07:10.480Z,22.30
2019-05-15T13:11:58.112Z,22.00
2019-05-15T13:17:02.588Z,21.90
2019-05-15T13:22:17.344Z,22.20
2019-05-15T13:27:12.939Z,22.60
2019-05-15T13:32:17.528Z,22.90
2019-05-15T13:37:27.389Z,23.30
2019-05-15T13:42:28.082Z,23.50
2019-05-15T13:47:35.844Z,23.80
2019-05-15T13:52:40.153Z,24.00
2019-05-15T13:57:44.575Z,23.50
2019-05-15T14:02:49.378Z,22.90
2019-05-15T14:07:53.781Z,22.40
2019-05-15T14:12:58.464Z,22.00
2019-05-15T14:18:03.189Z,21.80
2019-05-15T14:23:08.725Z,22.20
2019-05-15T14:28:13.348Z,22.70
2019-05-15T14:33:19.457Z,22.70
2019-05-15T14:38:23.966Z,22.60
2019-05-15T14:43:29.344Z,22.30
2019-05-15T14:48:34.036Z,21.90
2019-05-15T14:53:38.825Z,21.60
2019-05-15T14:58:43.228Z,21.40
2019-05-15T15:03:48.839Z,21.30
2019-05-15T15:08:53.309Z,21.30
2019-05-15T15:13:57.960Z,21.50
2019-05-15T15:19:02.515Z,21.50
2019-05-15T15:24:08.340Z,21.20
2019-05-15T15:29:12.865Z,21.20
2019-05-15T15:34:19.650Z,21.40
2019-05-15T15:39:24.808Z,21.80
2019-05-15T15:44:29.268Z,22.00
2019-05-15T15:49:33.681Z,21.70
2019-05-15T15:54:39.469Z,21.40
2019-05-15T15:59:44.680Z,21.40
2019-05-15T16:04:48.921Z,21.60
2019-05-15T16:09:53.220Z,21.90
2019-05-15T16:14:57.975Z,22.10
2019-05-15T16:20:02.577Z,22.00
2019-05-15T16:25:09.807Z,21.80
2019-05-15T16:30:20.282Z,21.50
2019-05-15T16:35:32.196Z,21.10
2019-05-15T16:40:38.344Z,20.70
2019-05-15T16:45:53.901Z,20.60
2019-05-15T16:51:00.972Z,20.70
2019-05-15T16:56:11.899Z,20.90
2019-05-15T17:01:24.082Z,21.10
2019-05-15T17:06:41.355Z,21.10
2019-05-15T17:11:49.178Z,21.00
2019-05-15T17:16:58.563Z,20.70
2019-05-15T17:22:14.703Z,20.50
2019-05-15T17:27:20.028Z,20.30
2019-05-15T17:32:29.117Z,20.10
2019-05-15T17:37:33.684Z,20.00
2019-05-15T17:42:38.873Z,19.90
2019-05-15T17:47:43.709Z,19.90
2019-05-15T17:52:49.133Z,20.00
2019-05-15T17:57:57.489Z,19.90
2019-05-15T18:02:59.836Z,19.90
2019-05-15T18:08:04.124Z,19.80
2019-05-15T18:13:08.896Z,19.70
2019-05-15T18:18:18.685Z,19.60
2019-05-15T18:23:23.756Z,19.50
2019-05-15T18:28:28.277Z,19.40
2019-05-15T18:33:32.744Z,19.30
2019-05-15T18:38:38.769Z,19.30
2019-05-15T18:43:43.230Z,19.10
2019-05-15T18:48:48.561Z,19.10
2019-05-15T18:53:53.085Z,19.00
2019-05-15T18:58:57.925Z,18.90
2019-05-15T19:04:02.644Z,18.80
2019-05-15T19:09:08.245Z,18.80
2019-05-15T19:14:12.663Z,18.60
2019-05-15T19:19:18.524Z,18.50
2019-05-15T19:24:23.051Z,18.40
2019-05-15T19:29:28.454Z,18.40
2019-05-15T19:34:32.934Z,18.40
2019-05-15T19:39:38.545Z,18.40
2019-05-15T19:44:43.094Z,18.30
2019-05-15T19:49:48.485Z,18.20
2019-05-15T19:54:52.832Z,18.10
2019-05-15T19:59:58.118Z,18.00
2019-05-15T20:05:02.916Z,17.90
2019-05-15T20:10:08.587Z,17.80
2019-05-15T20:15:13.901Z,17.80
2019-05-15T20:20:18.926Z,17.70
2019-05-15T20:25:23.712Z,17.60
2019-05-15T20:30:28.706Z,17.50
2019-05-15T20:35:33.209Z,17.40
2019-05-15T20:40:37.656Z,17.20
2019-05-15T20:45:41.994Z,17.10
2019-05-15T20:50:48.248Z,17.00
2019-05-15T20:55:52.555Z,16.90
2019-05-15T21:00:59.217Z,16.90
2019-05-15T21:06:02.969Z,16.80
2019-05-15T21:11:11.600Z,16.70
2019-05-15T21:16:13.438Z,16.60
2019-05-15T21:21:19.285Z,16.50
2019-05-15T21:26:23.766Z,16.40
2019-05-15T21:31:28.331Z,16.40
2019-05-15T21:36:32.647Z,16.40
2019-05-15T21:41:38.769Z,16.40
2019-05-15T21:46:43.156Z,16.30
2019-05-15T21:51:47.895Z,16.20
2019-05-15T21:57:05.453Z,16.10
2019-05-15T22:01:59.022Z,16.00
2019-05-15T22:07:03.492Z,15.90
2019-05-15T22:12:07.880Z,15.90
2019-05-15T22:17:12.327Z,15.90
2019-05-15T22:22:17.966Z,15.80
2019-05-15T22:27:22.446Z,15.80
2019-05-15T22:32:28.803Z,15.90
2019-05-15T22:37:32.799Z,15.80
2019-05-15T22:42:39.102Z,15.80
2019-05-15T22:47:43.139Z,15.70
2019-05-15T22:52:49.184Z,15.70
2019-05-15T22:57:53.471Z,15.70
2019-05-15T23:02:58.099Z,15.60
2019-05-15T23:08:02.604Z,15.60
2019-05-15T23:13:07.309Z,15.60
2019-05-15T23:18:11.670Z,15.60
2019-05-15T23:23:18.011Z,15.50
2019-05-15T23:28:21.996Z,15.50
2019-05-15T23:33:28.240Z,15.40
2019-05-15T23:38:35.551Z,15.50
2019-05-15T23:43:39.854Z,15.40
2019-05-15T23:48:44.149Z,15.30
2019-05-15T23:53:48.616Z,15.30
2019-05-15T23:58:53.003Z,15.30
